Time;durP1;ratioP1;P1;durP2;ratioP2;P2;SDS_P1;SDS_P2;PMS_P1;PMS_P2;Temp;Humidity;BMP_temperature;BMP_pressure;BME280_temperature;BME280_humidity;BME280_pressure;Samples;Min_cycle;Max_cycle;Signal;HPM_P1;HPM_P2
2021/12/11 00:01:19;;;;;;;9.43;6.80;;;1.80;99.90;;;;;;5013854;28;20033;-80
2021/12/11 00:03:58;;;;;;;10.13;7.22;;;1.70;99.90;;;;;;5031782;28;20108;-78
2021/12/11 00:06:30;;;;;;;10.27;7.25;;;1.70;99.90;;;;;;5009268;28;20087;-79
2021/12/11 00:08:57;;;;;;;;;;;1.80;99.90;;;;;;5014339;28;20108;-78
2021/12/11 00:11:33;;;;;;;11.63;7.25;;;1.70;99.90;;;;;;5013472;28;20007;-77
2021/12/11 00:14:02;;;;;;;10.13;8.00;;;1.70;99.90;;;;;;5014055;28;20041;-79
2021/12/11 00:16:31;;;;;;;11.75;7.80;;;1.70;99.90;;;;;;5013066;28;20053;-84
2021/12/11 00:19:05;;;;;;;15.10;10.40;;;1.70;99.90;;;;;;5013631;28;20112;-77
2021/12/11 00:21:31;;;;;;;26.20;15.98;;;1.70;99.90;;;;;;4997723;28;20385;-78
2021/12/11 00:24:10;;;;;;;27.45;16.52;;;1.70;99.90;;;;;;5030663;28;20127;-77
2021/12/11 00:26:45;;;;;;;28.92;16.63;;;1.70;99.90;;;;;;5019509;28;20030;-78
2021/12/11 00:29:14;;;;;;;26.55;15.38;;;1.70;99.90;;;;;;5013471;28;20021;-87
2021/12/11 00:31:46;;;;;;;22.35;14.35;;;1.70;99.90;;;;;;5013393;28;20087;-79
2021/12/11 00:34:14;;;;;;;19.23;11.88;;;1.70;99.90;;;;;;5013931;28;20029;-84
2021/12/11 00:36:48;;;;;;;19.52;11.25;;;1.70;99.90;;;;;;5012278;28;20028;-78
2021/12/11 00:39:15;;;;;;;14.50;11.30;;;1.70;99.90;;;;;;5013466;28;20434;-77
2021/12/11 00:41:49;;;;;;;11.98;9.18;;;1.70;99.90;;;;;;5013336;28;20458;-84
2021/12/11 00:44:15;;;;;;;14.38;10.02;;;1.70;99.90;;;;;;5013045;28;20522;-77
2021/12/11 00:46:41;;;;;;;13.43;9.52;;;1.70;99.90;;;;;;5013747;28;20021;-78
2021/12/11 00:49:14;;;;;;;12.38;9.20;;;1.60;99.90;;;;;;5012707;28;20154;-77
2021/12/11 00:51:40;;;;;;;10.23;8.73;;;1.70;99.90;;;;;;4996793;28;20104;-78
2021/12/11 00:54:07;;;;;;;10.95;8.35;;;1.70;99.90;;;;;;5010420;28;20025;-82
2021/12/11 00:56:37;;;;;;;10.85;8.50;;;1.70;99.90;;;;;;5009270;28;20041;-78
2021/12/11 00:59:12;;;;;;;9.65;8.27;;;1.60;99.90;;;;;;5024681;28;20021;-77
2021/12/11 01:01:59;;;;;;;10.05;8.07;;;1.60;99.90;;;;;;5013537;28;20037;-78
2021/12/11 01:04:32;;;;;;;10.88;8.07;;;1.60;99.90;;;;;;5012820;28;20022;-78
2021/12/11 01:07:03;;;;;;;10.75;8.43;;;1.70;99.90;;;;;;5013333;28;20089;-78
2021/12/11 01:09:36;;;;;;;11.02;8.30;;;1.70;99.90;;;;;;4979085;28;20030;-78
2021/12/11 01:12:37;;;;;;;10.52;8.95;;;1.60;99.90;;;;;;4993172;28;20077;-79
2021/12/11 01:15:15;;;;;;;10.38;8.88;;;1.60;99.90;;;;;;4994332;28;20025;-77
2021/12/11 01:17:58;;;;;;;13.27;9.80;;;1.60;99.90;;;;;;4993396;28;20029;-78
2021/12/11 01:20:35;;;;;;;10.40;8.15;;;1.70;99.90;;;;;;5001478;28;20064;-79
2021/12/11 01:23:04;;;;;;;10.35;9.00;;;1.70;99.90;;;;;;4993739;28;20038;-82
2021/12/11 01:25:30;;;;;;;11.25;8.13;;;1.70;99.90;;;;;;4992892;28;20029;-83
2021/12/11 01:28:03;;;;;;;9.95;8.40;;;1.70;99.90;;;;;;4998670;28;20156;-83
2021/12/11 01:30:37;;;;;;;10.80;8.40;;;1.70;99.90;;;;;;5004446;28;20029;-77
2021/12/11 01:33:06;;;;;;;10.63;8.27;;;1.70;99.90;;;;;;5012238;28;20033;-77
2021/12/11 01:35:31;;;;;;;9.27;7.38;;;1.80;99.90;;;;;;5011770;28;20792;-77
2021/12/11 01:38:05;;;;;;;9.70;8.50;;;1.80;99.90;;;;;;5012094;28;20037;-79
2021/12/11 01:40:32;;;;;;;10.77;8.45;;;1.80;99.90;;;;;;5014152;28;20025;-78
2021/12/11 01:43:02;;;;;;;11.20;8.35;;;1.80;99.90;;;;;;5016887;28;20031;-78
2021/12/11 01:45:28;;;;;;;9.88;8.00;;;1.80;99.90;;;;;;5016019;28;20040;-84
2021/12/11 01:47:55;;;;;;;9.38;7.68;;;1.90;99.90;;;;;;5034015;28;20030;-78
2021/12/11 01:50:25;;;;;;;10.57;8.02;;;1.90;99.90;;;;;;5016681;28;20512;-80
2021/12/11 01:52:59;;;;;;;9.20;7.68;;;1.90;99.90;;;;;;5016054;28;20029;-80
2021/12/11 01:55:29;;;;;;;10.10;7.82;;;1.90;99.90;;;;;;5016017;28;20018;-76
2021/12/11 01:57:56;;;;;;;9.68;8.57;;;1.80;99.90;;;;;;5016665;28;20144;-84
2021/12/11 02:00:47;;;;;;;10.50;7.82;;;1.80;99.90;;;;;;5015549;28;20048;-78
2021/12/11 02:03:18;;;;;;;10.27;8.10;;;1.80;99.90;;;;;;5016171;28;20063;-78
2021/12/11 02:05:44;;;;;;;9.48;7.50;;;1.80;99.90;;;;;;5016172;28;20045;-78
2021/12/11 02:08:16;;;;;;;11.57;8.73;;;1.80;99.90;;;;;;5015732;28;20454;-78
2021/12/11 02:10:56;;;;;;;12.30;9.38;;;1.80;99.90;;;;;;4995976;28;20410;-84
2021/12/11 02:13:37;;;;;;;12.15;9.20;;;1.80;99.90;;;;;;5012522;28;20030;-77
2021/12/11 02:16:05;;;;;;;11.05;8.32;;;1.80;99.90;;;;;;5013269;28;20094;-77
2021/12/11 02:18:35;;;;;;;8.50;7.38;;;1.70;99.90;;;;;;5012177;28;20018;-85
2021/12/11 02:21:51;;;;;;;9.95;8.10;;;1.70;99.90;;;;;;5012162;28;20053;-83
2021/12/11 02:24:22;;;;;;;8.63;7.53;;;1.70;99.90;;;;;;4937518;29;20143;-78
2021/12/11 02:26:47;;;;;;;11.07;8.65;;;1.70;99.90;;;;;;5023531;28;20117;-78
2021/12/11 02:29:35;;;;;;;10.85;8.95;;;1.70;99.90;;;;;;5012001;28;20113;-81
2021/12/11 02:32:13;;;;;;;11.93;9.98;;;1.60;99.90;;;;;;5006991;28;20397;-78
2021/12/11 02:34:43;;;;;;;9.88;8.32;;;1.60;99.90;;;;;;5011820;28;20371;-78
2021/12/11 02:37:37;;;;;;;12.10;8.63;;;1.60;99.90;;;;;;5010914;28;20105;-78
2021/12/11 02:40:17;;;;;;;12.27;9.43;;;1.60;99.90;;;;;;5010854;28;20375;-77
2021/12/11 02:42:50;;;;;;;11.75;10.02;;;1.60;99.90;;;;;;5011707;28;20448;-81
2021/12/11 02:45:34;;;;;;;10.23;8.65;;;1.60;99.90;;;;;;5012005;28;20037;-79
2021/12/11 02:48:22;;;;;;;13.68;9.43;;;1.60;99.90;;;;;;4992630;28;20026;-78
2021/12/11 02:51:05;;;;;;;12.13;8.98;;;1.60;99.90;;;;;;4991403;28;20022;-85
2021/12/11 02:53:43;;;;;;;10.65;8.77;;;1.60;99.90;;;;;;4992505;28;20027;-77
2021/12/11 02:56:21;;;;;;;10.02;8.00;;;1.60;99.90;;;;;;5008779;28;20466;-78
2021/12/11 02:58:52;;;;;;;10.10;8.77;;;1.60;99.90;;;;;;5028334;28;20018;-78
2021/12/11 03:01:31;;;;;;;10.80;8.52;;;1.60;99.90;;;;;;5011120;28;20136;-77
2021/12/11 03:04:25;;;;;;;11.45;8.80;;;1.60;99.90;;;;;;5009632;28;20029;-85
2021/12/11 03:06:55;;;;;;;10.65;8.98;;;1.60;99.90;;;;;;5012216;28;20025;-79
2021/12/11 03:09:25;;;;;;;10.15;7.93;;;1.60;99.90;;;;;;5011639;28;20018;-77
2021/12/11 03:11:54;;;;;;;11.27;8.63;;;1.60;99.90;;;;;;5011004;28;20408;-77
2021/12/11 03:14:23;;;;;;;10.07;8.98;;;1.60;99.90;;;;;;4995042;28;20128;-78
2021/12/11 03:16:50;;;;;;;11.57;9.30;;;1.60;99.90;;;;;;5011357;28;20026;-77
2021/12/11 03:19:21;;;;;;;12.90;9.05;;;1.50;99.90;;;;;;5010701;28;20030;-78
2021/12/11 03:21:48;;;;;;;11.85;9.32;;;1.60;99.90;;;;;;5028182;28;20121;-78
2021/12/11 03:24:14;;;;;;;11.32;8.90;;;1.60;99.90;;;;;;5010904;28;20029;-80
2021/12/11 03:26:41;;;;;;;10.82;8.27;;;1.60;99.90;;;;;;5011351;28;20033;-77
2021/12/11 03:29:08;;;;;;;10.75;9.10;;;1.60;99.90;;;;;;5011384;28;20065;-76
2021/12/11 03:31:38;;;;;;;10.70;8.30;;;1.60;99.90;;;;;;5008432;28;20026;-77
2021/12/11 03:34:07;;;;;;;9.25;7.82;;;1.70;99.90;;;;;;5011194;28;20505;-76
2021/12/11 03:36:33;;;;;;;10.15;8.38;;;1.70;99.90;;;;;;5011020;28;20022;-80
2021/12/11 03:39:07;;;;;;;10.30;8.00;;;1.70;99.90;;;;;;5010507;28;20049;-77
2021/12/11 03:41:33;;;;;;;10.65;8.90;;;1.70;99.90;;;;;;5010651;28;20048;-77
2021/12/11 03:43:58;;;;;;;10.43;8.35;;;1.80;99.90;;;;;;5012422;28;20050;-78
2021/12/11 03:46:25;;;;;;;13.48;9.05;;;1.80;99.90;;;;;;5010210;28;20446;-79
2021/12/11 03:48:57;;;;;;;10.30;8.30;;;1.80;99.90;;;;;;5010842;28;20437;-78
2021/12/11 03:51:28;;;;;;;9.02;7.93;;;1.70;99.90;;;;;;5010840;28;20080;-76
2021/12/11 03:53:55;;;;;;;9.02;7.85;;;1.80;99.90;;;;;;5010491;28;20040;-76
2021/12/11 03:56:20;;;;;;;11.00;9.30;;;1.80;99.90;;;;;;5010813;28;20014;-76
2021/12/11 03:58:51;;;;;;;10.68;8.07;;;1.70;99.90;;;;;;5010558;28;20508;-87
2021/12/11 04:01:27;;;;;;;11.55;9.60;;;1.70;99.90;;;;;;5009803;28;20470;-76
2021/12/11 04:03:57;;;;;;;11.05;9.05;;;1.60;99.90;;;;;;5010822;28;20101;-76
2021/12/11 04:06:24;;;;;;;10.63;8.85;;;1.60;99.90;;;;;;5010057;28;20080;-76
2021/12/11 04:08:52;;;;;;;11.65;8.82;;;1.50;99.90;;;;;;5010910;28;20108;-76
2021/12/11 04:11:24;;;;;;;9.38;8.45;;;1.50;99.90;;;;;;5010771;28;20046;-77
2021/12/11 04:13:56;;;;;;;12.23;10.75;;;1.40;99.90;;;;;;5010033;28;20387;-77
2021/12/11 04:16:22;;;;;;;12.70;9.65;;;1.40;99.90;;;;;;5010631;28;20026;-76
2021/12/11 04:18:49;;;;;;;14.35;10.35;;;1.40;99.90;;;;;;5010381;28;20518;-76
2021/12/11 04:21:16;;;;;;;10.73;9.13;;;1.40;99.90;;;;;;5009558;28;20029;-76
2021/12/11 04:23:42;;;;;;;11.95;8.82;;;1.40;99.90;;;;;;5010093;28;20487;-81
2021/12/11 04:26:09;;;;;;;10.48;8.88;;;1.40;99.90;;;;;;5010572;28;20116;-77
2021/12/11 04:28:37;;;;;;;9.18;7.90;;;1.50;99.90;;;;;;5009169;28;20021;-82
2021/12/11 04:31:09;;;;;;;9.65;7.68;;;1.50;99.90;;;;;;5010497;28;20022;-77
2021/12/11 04:33:39;;;;;;;;;;;1.50;99.90;;;;;;5010285;28;20030;-77
2021/12/11 04:36:13;;;;;;;11.02;8.30;;;1.50;99.90;;;;;;5026109;28;19905;-77
2021/12/11 04:38:40;;;;;;;10.38;7.97;;;1.50;99.90;;;;;;5010161;28;20033;-77
2021/12/11 04:41:07;;;;;;;9.60;8.60;;;1.50;99.90;;;;;;5010606;28;20022;-76
2021/12/11 04:43:34;;;;;;;9.95;7.95;;;1.60;99.90;;;;;;5010361;28;20026;-77
2021/12/11 04:46:07;;;;;;;12.82;8.23;;;1.60;99.90;;;;;;5010165;28;20025;-76
2021/12/11 04:49:05;;;;;;;10.75;8.10;;;1.70;99.90;;;;;;5008923;28;20022;-76
2021/12/11 04:51:49;;;;;;;8.93;8.02;;;1.80;99.90;;;;;;5009821;28;20497;-76
2021/12/11 05:02:48;;;;;;;9.32;7.50;;;1.90;99.90;;;;;;5011190;28;20026;-76
2021/12/11 05:05:25;;;;;;;8.75;7.85;;;2.00;99.90;;;;;;5010994;28;20121;-85
2021/12/11 05:10:42;;;;;;;7.80;6.88;;;2.10;99.90;;;;;;5007532;28;20042;-79
2021/12/11 05:13:08;;;;;;;9.05;7.95;;;2.20;99.90;;;;;;5029420;28;20083;-76
2021/12/11 05:15:37;;;;;;;10.15;8.60;;;2.20;99.90;;;;;;5030593;28;20017;-75
2021/12/11 05:18:08;;;;;;;13.85;10.02;;;2.20;99.90;;;;;;5016843;28;20028;-85
2021/12/11 05:20:35;;;;;;;13.52;9.27;;;2.30;99.90;;;;;;5016714;28;21002;-76
2021/12/11 05:23:01;;;;;;;11.05;8.85;;;2.30;99.90;;;;;;5017300;28;20029;-76
2021/12/11 05:25:28;;;;;;;11.35;9.45;;;2.30;99.90;;;;;;5016160;28;20024;-77
2021/12/11 05:27:54;;;;;;;11.98;10.23;;;2.40;99.90;;;;;;4997616;28;20053;-77
2021/12/11 05:30:25;;;;;;;12.38;11.05;;;2.50;99.90;;;;;;4997025;28;20109;-79
2021/12/11 05:32:51;;;;;;;13.02;11.02;;;2.50;99.90;;;;;;4996901;28;20106;-77
2021/12/11 05:35:18;;;;;;;12.07;10.35;;;2.50;99.90;;;;;;5014300;28;20034;-76
2021/12/11 05:37:44;;;;;;;13.07;10.07;;;2.50;99.90;;;;;;4996157;28;20699;-77
2021/12/11 05:40:14;;;;;;;11.63;9.30;;;2.60;99.90;;;;;;4996997;28;20113;-77
2021/12/11 05:42:40;;;;;;;11.20;9.68;;;2.60;99.90;;;;;;4996041;28;20462;-78
2021/12/11 05:45:07;;;;;;;15.63;11.38;;;2.60;99.90;;;;;;4994839;28;20060;-77
2021/12/11 05:47:33;;;;;;;11.68;9.75;;;2.70;99.90;;;;;;4996369;28;20025;-76
2021/12/11 05:49:59;;;;;;;12.60;9.68;;;2.70;99.90;;;;;;4996734;28;20025;-77
2021/12/11 05:52:25;;;;;;;13.75;10.52;;;2.70;99.90;;;;;;4995614;28;20038;-77
2021/12/11 05:54:52;;;;;;;12.60;10.25;;;2.80;99.90;;;;;;4996857;28;20026;-77
2021/12/11 05:57:20;;;;;;;10.95;9.20;;;2.80;99.90;;;;;;4996704;28;20029;-77
2021/12/11 05:59:46;;;;;;;10.35;8.73;;;2.80;99.90;;;;;;4995662;28;20025;-76
2021/12/11 06:02:22;;;;;;;12.77;8.77;;;2.80;99.90;;;;;;4996710;28;20022;-78
2021/12/11 06:04:51;;;;;;;10.88;8.75;;;2.80;99.90;;;;;;4996727;28;20031;-77
2021/12/11 06:07:18;;;;;;;10.63;8.63;;;2.80;99.90;;;;;;4995362;28;20711;-77
2021/12/11 06:09:47;;;;;;;12.68;9.93;;;2.90;99.90;;;;;;4996406;28;20052;-77
2021/12/11 06:12:16;;;;;;;10.77;8.75;;;2.90;99.90;;;;;;4996367;28;20030;-76
2021/12/11 06:14:43;;;;;;;10.63;8.38;;;2.90;99.90;;;;;;4995652;28;20390;-82
2021/12/11 06:17:15;;;;;;;11.50;8.90;;;2.90;99.90;;;;;;4996557;28;20116;-77
2021/12/11 06:19:42;;;;;;;;;;;3.00;99.90;;;;;;4996663;28;20075;-78
2021/12/11 06:22:08;;;;;;;10.82;7.50;;;3.00;99.90;;;;;;4995657;28;20008;-78
2021/12/11 06:24:34;;;;;;;10.65;8.65;;;3.00;99.90;;;;;;4995562;28;20462;-80
2021/12/11 06:27:00;;;;;;;13.32;9.25;;;3.00;99.90;;;;;;4995051;28;20029;-77
2021/12/11 06:29:27;;;;;;;10.65;9.30;;;3.00;99.90;;;;;;4995848;28;20060;-77
2021/12/11 06:31:53;;;;;;;11.23;8.82;;;3.00;99.90;;;;;;4996278;28;20014;-78
2021/12/11 06:34:19;;;;;;;12.35;9.93;;;3.00;99.90;;;;;;5012764;28;20034;-79
2021/12/11 06:36:46;;;;;;;16.17;11.25;;;3.00;99.90;;;;;;4995795;28;20483;-82
2021/12/11 06:39:16;;;;;;;11.40;8.80;;;3.10;99.90;;;;;;4996254;28;20054;-79
2021/12/11 06:41:44;;;;;;;11.43;10.23;;;3.10;99.90;;;;;;4995186;28;20022;-78
2021/12/11 06:44:11;;;;;;;10.48;8.82;;;3.10;99.90;;;;;;4996201;28;20029;-80
2021/12/11 06:46:39;;;;;;;11.63;10.07;;;3.10;99.90;;;;;;4995117;28;20040;-79
2021/12/11 06:49:05;;;;;;;10.82;9.20;;;3.10;99.90;;;;;;4995292;28;20442;-78
2021/12/11 06:51:32;;;;;;;12.52;9.65;;;3.20;99.90;;;;;;4995082;28;20536;-79
2021/12/11 06:54:04;;;;;;;11.93;9.98;;;3.20;99.90;;;;;;5013603;28;20026;-79
2021/12/11 06:56:30;;;;;;;12.73;9.40;;;3.20;99.90;;;;;;4995468;28;20080;-78
2021/12/11 06:58:56;;;;;;;10.57;9.05;;;3.20;99.90;;;;;;5014896;28;20067;-80
2021/12/11 07:01:24;;;;;;;10.15;8.52;;;3.20;99.90;;;;;;5013662;28;20080;-79
2021/12/11 07:03:51;;;;;;;10.27;8.70;;;3.20;99.90;;;;;;5014328;28;20429;-79
2021/12/11 07:06:17;;;;;;;11.63;9.23;;;3.30;99.90;;;;;;5014695;28;20049;-79
2021/12/11 07:08:43;;;;;;;11.15;8.80;;;3.20;99.90;;;;;;5022842;28;20021;-79
2021/12/11 07:11:11;;;;;;;12.98;9.95;;;3.30;99.90;;;;;;5030706;28;20069;-80
2021/12/11 07:13:38;;;;;;;12.43;9.38;;;3.30;99.90;;;;;;5031076;28;20041;-80
2021/12/11 07:16:04;;;;;;;10.52;8.65;;;3.30;99.90;;;;;;5031720;28;20014;-81
2021/12/11 07:18:31;;;;;;;11.25;9.02;;;3.30;99.90;;;;;;5030236;28;20040;-79
2021/12/11 07:20:58;;;;;;;11.00;9.05;;;3.30;99.90;;;;;;5022064;28;20030;-80
2021/12/11 07:23:24;;;;;;;14.30;9.95;;;3.30;99.90;;;;;;5014066;28;20036;-84
2021/12/11 07:26:12;;;;;;;11.50;9.00;;;3.40;99.90;;;;;;5015224;28;20025;-80
2021/12/11 07:28:46;;;;;;;12.05;10.07;;;3.40;99.90;;;;;;5032211;28;20028;-79
2021/12/11 07:31:12;;;;;;;12.95;9.85;;;3.30;99.90;;;;;;5013489;28;20057;-79
2021/12/11 07:33:38;;;;;;;13.23;10.10;;;3.40;99.90;;;;;;5031990;28;20084;-79
2021/12/11 07:36:04;;;;;;;11.73;8.73;;;3.40;99.90;;;;;;5015047;28;20398;-80
2021/12/11 07:38:31;;;;;;;11.50;9.20;;;3.40;99.90;;;;;;5030763;28;20033;-78
2021/12/11 07:40:59;;;;;;;12.20;9.65;;;3.40;99.90;;;;;;5014426;28;20037;-79
2021/12/11 07:43:27;;;;;;;12.48;10.77;;;3.40;99.90;;;;;;5013711;28;20049;-78
2021/12/11 07:45:54;;;;;;;14.45;11.80;;;3.40;99.90;;;;;;5014043;28;20071;-78
2021/12/11 07:48:20;;;;;;;14.07;10.50;;;3.40;99.90;;;;;;5014173;28;20108;-86
2021/12/11 07:50:46;;;;;;;13.30;10.30;;;3.40;99.90;;;;;;5013706;28;20071;-79
2021/12/11 07:53:12;;;;;;;13.60;10.70;;;3.40;99.90;;;;;;5030923;28;20464;-78
2021/12/11 07:55:38;;;;;;;14.07;10.13;;;3.40;99.90;;;;;;5013996;28;20021;-86
2021/12/11 07:58:06;;;;;;;13.43;10.00;;;3.50;99.90;;;;;;5014295;28;20017;-78
2021/12/11 08:00:34;;;;;;;13.88;10.75;;;3.50;99.90;;;;;;5013608;28;20029;-78
2021/12/11 08:02:59;;;;;;;13.00;10.32;;;3.50;99.90;;;;;;5014073;28;20032;-78
2021/12/11 08:05:27;;;;;;;12.43;9.98;;;3.50;99.90;;;;;;5013703;28;20013;-77
2021/12/11 08:07:53;;;;;;;12.20;9.80;;;3.50;99.90;;;;;;5014060;28;20060;-79
2021/12/11 08:10:22;;;;;;;11.57;9.60;;;3.50;99.90;;;;;;5010459;28;20450;-79
2021/12/11 08:12:48;;;;;;;14.98;12.00;;;3.50;99.90;;;;;;5026592;28;20030;-78
2021/12/11 08:15:16;;;;;;;13.55;11.13;;;3.50;99.90;;;;;;5007508;28;20029;-78
2021/12/11 08:17:42;;;;;;;16.48;12.07;;;3.50;99.90;;;;;;5000335;28;20027;-80
2021/12/11 08:20:10;;;;;;;14.40;10.50;;;3.60;99.90;;;;;;5000269;28;20026;-80
2021/12/11 08:22:36;;;;;;;13.50;11.15;;;3.60;99.90;;;;;;5009129;28;20029;-85
2021/12/11 08:25:03;;;;;;;14.20;10.25;;;3.60;99.90;;;;;;5009112;28;20374;-82
2021/12/11 08:27:30;;;;;;;16.15;11.27;;;3.60;99.90;;;;;;5010496;28;20101;-85
2021/12/11 08:29:56;;;;;;;12.23;9.60;;;3.70;99.90;;;;;;5011725;28;20026;-81
2021/12/11 08:32:23;;;;;;;14.68;10.57;;;3.70;99.90;;;;;;5024563;28;20106;-80
2021/12/11 08:34:49;;;;;;;13.27;10.05;;;3.70;99.90;;;;;;5009549;28;20026;-82
2021/12/11 08:37:16;;;;;;;12.65;10.48;;;3.70;99.90;;;;;;5010068;28;20461;-83
2021/12/11 08:39:44;;;;;;;13.02;10.93;;;3.80;99.90;;;;;;5009999;28;20053;-83
2021/12/11 08:42:16;;;;;;;12.63;10.70;;;3.80;99.90;;;;;;5009977;28;20897;-83
2021/12/11 08:44:50;;;;;;;13.10;11.02;;;3.80;99.90;;;;;;5009411;28;20489;-80
2021/12/11 08:47:18;;;;;;;13.30;10.90;;;3.80;99.90;;;;;;5004703;28;20466;-85
2021/12/11 08:49:52;;;;;;;15.52;12.25;;;3.90;99.90;;;;;;5001734;28;20022;-81
2021/12/11 08:52:23;;;;;;;12.52;10.90;;;3.90;99.90;;;;;;5006896;28;20120;-83
2021/12/11 08:54:52;;;;;;;13.45;10.60;;;3.90;99.90;;;;;;5005075;28;20025;-81
2021/12/11 08:57:23;;;;;;;13.23;11.68;;;3.90;99.90;;;;;;5007273;28;20022;-77
2021/12/11 08:59:52;;;;;;;15.02;11.73;;;4.00;99.90;;;;;;5004499;28;20084;-83
2021/12/11 09:02:23;;;;;;;14.77;12.50;;;4.00;99.90;;;;;;5000888;28;20030;-79
2021/12/11 09:04:59;;;;;;;15.57;12.40;;;4.00;99.90;;;;;;5008219;28;20033;-79
2021/12/11 09:07:31;;;;;;;14.73;12.27;;;4.10;99.90;;;;;;5008296;28;20061;-77
2021/12/11 09:10:00;;;;;;;14.18;11.88;;;4.10;99.90;;;;;;5009879;28;20468;-81
2021/12/11 09:12:48;;;;;;;14.55;12.07;;;4.10;99.90;;;;;;5010428;28;20482;-84
2021/12/11 09:15:29;;;;;;;15.73;11.98;;;4.10;99.90;;;;;;5013973;28;20013;-84
2021/12/11 09:18:02;;;;;;;16.88;12.88;;;4.10;99.90;;;;;;5018140;28;20125;-87
2021/12/11 09:20:37;;;;;;;14.55;11.52;;;4.00;99.90;;;;;;4992663;28;20030;-82
2021/12/11 09:23:12;;;;;;;14.77;11.07;;;4.00;99.90;;;;;;5027518;28;20452;-82
2021/12/11 09:25:53;;;;;;;13.77;11.18;;;4.00;99.90;;;;;;5010122;28;20037;-80
2021/12/11 09:28:53;;;;;;;15.30;12.57;;;4.00;99.90;;;;;;5012682;28;20032;-83
2021/12/11 09:31:36;;;;;;;15.77;11.90;;;4.10;99.90;;;;;;4997946;28;20097;-89
2021/12/11 09:34:22;;;;;;;17.42;13.32;;;4.10;99.90;;;;;;5002776;28;20034;-85
2021/12/11 09:36:54;;;;;;;13.98;11.70;;;4.30;99.90;;;;;;5027019;28;20478;-84
2021/12/11 09:39:46;;;;;;;15.80;12.10;;;4.30;99.90;;;;;;5013520;28;20072;-91
2021/12/11 09:42:11;;;;;;;17.70;13.20;;;4.40;99.90;;;;;;5012012;28;20063;-81
2021/12/11 09:44:43;;;;;;;14.32;12.35;;;4.50;99.90;;;;;;5010555;28;20893;-84
2021/12/11 09:47:17;;;;;;;16.95;13.18;;;4.60;99.90;;;;;;4993082;28;20083;-86
2021/12/11 09:49:53;;;;;;;19.65;14.70;;;4.60;99.90;;;;;;5007272;28;20040;-82
2021/12/11 09:52:23;;;;;;;16.27;13.85;;;4.70;99.90;;;;;;5028498;28;20026;-84
2021/12/11 09:54:58;;;;;;;14.88;12.13;;;4.70;99.90;;;;;;5022114;28;20109;-77
2021/12/11 09:57:26;;;;;;;18.40;15.23;;;4.70;99.90;;;;;;5012157;28;20032;-80
2021/12/11 09:59:55;;;;;;;15.85;12.60;;;4.80;99.90;;;;;;5011831;28;20033;-85
2021/12/11 10:02:37;;;;;;;19.05;14.93;;;4.80;99.90;;;;;;5015699;28;20440;-90
2021/12/11 10:05:35;;;;;;;16.35;13.45;;;4.90;99.90;;;;;;5009001;28;20449;-81
2021/12/11 10:09:17;;;;;;;12.77;11.00;;;4.90;99.90;;;;;;4994295;28;20128;-86
2021/12/11 10:11:44;;;;;;;16.48;13.55;;;5.00;99.90;;;;;;4998489;28;20053;-80
2021/12/11 10:14:41;;;;;;;15.50;12.85;;;5.10;99.90;;;;;;4994634;28;20026;-83
2021/12/11 10:17:36;;;;;;;18.33;13.85;;;5.20;99.90;;;;;;4976387;28;20030;-83
2021/12/11 10:20:06;;;;;;;18.25;15.15;;;5.20;99.90;;;;;;4999408;28;20026;-79
2021/12/11 10:22:34;;;;;;;17.10;14.00;;;5.30;99.90;;;;;;5011767;28;20080;-77
2021/12/11 10:25:02;;;;;;;20.35;16.42;;;5.30;99.90;;;;;;5012817;28;20470;-77
2021/12/11 10:27:31;;;;;;;17.00;14.45;;;5.30;99.90;;;;;;5012215;28;20033;-78
2021/12/11 10:30:00;;;;;;;18.40;14.45;;;5.40;99.90;;;;;;5010397;28;20026;-86
2021/12/11 10:32:29;;;;;;;18.05;14.32;;;5.50;99.90;;;;;;5011475;28;20034;-81
2021/12/11 10:35:00;;;;;;;17.95;12.80;;;5.50;99.90;;;;;;5010925;28;20029;-79
2021/12/11 10:37:33;;;;;;;22.25;15.82;;;5.60;99.90;;;;;;5005318;28;20035;-78
2021/12/11 10:40:04;;;;;;;19.38;14.40;;;5.60;99.90;;;;;;5011336;28;20029;-78
2021/12/11 10:42:30;;;;;;;21.60;16.25;;;5.60;99.90;;;;;;5009457;28;20125;-77
2021/12/11 10:44:58;;;;;;;305.05;28.38;;;5.60;99.90;;;;;;5010292;28;20113;-77
2021/12/11 10:47:33;;;;;;;21.63;17.02;;;5.70;99.90;;;;;;5008725;28;20475;-77
2021/12/11 10:50:00;;;;;;;21.30;16.60;;;5.60;99.90;;;;;;5001974;28;20030;-84
2021/12/11 10:52:30;;;;;;;22.45;17.50;;;5.60;99.90;;;;;;5012655;28;20034;-79
2021/12/11 10:54:58;;;;;;;19.23;15.23;;;5.60;99.90;;;;;;5010752;28;20022;-79
2021/12/11 10:57:23;;;;;;;17.83;13.90;;;5.60;99.90;;;;;;5009001;28;20606;-77
2021/12/11 10:59:54;;;;;;;20.20;15.75;;;5.70;99.90;;;;;;5011015;28;20033;-79
2021/12/11 11:02:29;;;;;;;22.02;17.33;;;5.70;99.90;;;;;;5009559;28;20018;-81
2021/12/11 11:05:09;;;;;;;20.52;17.17;;;5.70;99.90;;;;;;5009292;28;20045;-81
2021/12/11 11:07:36;;;;;;;19.08;15.10;;;5.60;99.90;;;;;;4994341;28;20483;-82
2021/12/11 11:10:07;;;;;;;17.58;14.93;;;5.70;99.90;;;;;;5012791;28;20033;-83
2021/12/11 11:12:36;;;;;;;19.55;14.50;;;5.70;99.90;;;;;;5031323;28;20034;-88
2021/12/11 11:15:04;;;;;;;19.15;14.63;;;5.70;99.90;;;;;;5015447;28;20087;-81
2021/12/11 11:17:32;;;;;;;18.45;14.82;;;5.70;99.90;;;;;;5030376;28;20611;-81
2021/12/11 11:19:58;;;;;;;15.60;13.38;;;5.70;99.90;;;;;;5010023;28;20029;-81
2021/12/11 11:22:28;;;;;;;16.77;13.57;;;5.70;99.90;;;;;;5013542;28;20500;-80
2021/12/11 11:25:00;;;;;;;17.50;15.20;;;5.70;99.90;;;;;;5010377;28;20120;-81
2021/12/11 11:27:26;;;;;;;14.77;12.68;;;5.70;99.90;;;;;;5012014;28;20021;-84
2021/12/11 11:29:52;;;;;;;15.10;13.35;;;5.70;99.90;;;;;;5031155;28;20366;-78
2021/12/11 11:32:31;;;;;;;910.28;48.58;;;5.70;99.90;;;;;;5014182;28;20033;-78
2021/12/11 11:35:19;;;;;;;15.85;13.48;;;5.70;99.90;;;;;;5013672;28;20045;-80
2021/12/11 11:37:48;;;;;;;17.08;13.50;;;5.70;99.90;;;;;;5011684;28;20025;-81
2021/12/11 11:40:19;;;;;;;13.75;11.88;;;5.70;99.90;;;;;;5013522;28;20029;-79
2021/12/11 11:42:44;;;;;;;14.10;11.95;;;5.70;99.90;;;;;;5013856;28;20026;-82
2021/12/11 11:45:11;;;;;;;13.85;11.90;;;5.70;99.90;;;;;;5013407;28;20048;-80
2021/12/11 11:47:37;;;;;;;13.02;10.82;;;5.80;99.90;;;;;;5009435;28;20116;-81
2021/12/11 11:50:06;;;;;;;16.85;12.80;;;5.90;99.90;;;;;;5012837;28;20052;-83
2021/12/11 11:52:31;;;;;;;14.80;12.43;;;5.90;99.90;;;;;;5030795;28;20079;-84
2021/12/11 11:55:01;;;;;;;13.20;11.80;;;5.90;99.90;;;;;;5030492;28;20021;-90
2021/12/11 11:57:38;;;;;;;14.05;11.40;;;5.90;99.90;;;;;;5022224;28;20481;-82
2021/12/11 12:00:19;;;;;;;13.93;11.98;;;5.90;99.90;;;;;;5013724;28;20474;-90
2021/12/11 12:02:45;;;;;;;14.45;12.02;;;5.90;99.90;;;;;;5012278;28;20090;-84
2021/12/11 12:05:11;;;;;;;16.40;13.10;;;5.90;99.90;;;;;;4995089;28;20022;-83
2021/12/11 12:07:37;;;;;;;16.65;14.00;;;5.90;99.90;;;;;;4993496;28;20081;-81
2021/12/11 12:10:20;;;;;;;15.63;12.57;;;5.90;99.90;;;;;;5025188;28;20030;-82
2021/12/11 12:12:46;;;;;;;18.52;14.32;;;6.00;99.90;;;;;;5012971;28;20590;-81
2021/12/11 12:15:18;;;;;;;15.68;12.73;;;6.10;99.90;;;;;;5013246;28;20022;-82
2021/12/11 12:17:44;;;;;;;17.75;14.50;;;6.00;99.90;;;;;;5009220;28;20022;-80
2021/12/11 12:20:12;;;;;;;18.02;14.05;;;6.00;99.90;;;;;;4995998;28;20083;-85
2021/12/11 12:22:40;;;;;;;15.80;13.40;;;6.00;99.90;;;;;;5014119;28;20464;-81
2021/12/11 12:25:06;;;;;;;15.60;13.27;;;6.00;99.90;;;;;;5030879;28;20020;-83
2021/12/11 12:27:36;;;;;;;14.63;12.18;;;6.00;99.90;;;;;;5028391;28;20037;-89
2021/12/11 12:30:15;;;;;;;15.25;12.07;;;6.00;99.90;;;;;;5029113;28;20041;-82
2021/12/11 12:32:41;;;;;;;16.17;12.90;;;6.00;99.90;;;;;;5009077;28;20045;-81
2021/12/11 12:35:11;;;;;;;15.77;13.65;;;6.00;99.90;;;;;;5013232;28;20033;-80
2021/12/11 12:37:36;;;;;;;14.23;12.25;;;6.00;99.90;;;;;;5001145;28;20026;-82
2021/12/11 12:40:06;;;;;;;14.73;13.07;;;6.10;99.90;;;;;;5006093;28;20045;-87
2021/12/11 12:42:37;;;;;;;17.52;14.10;;;6.10;99.90;;;;;;5013280;28;20026;-81
2021/12/11 12:45:15;;;;;;;16.15;13.38;;;6.00;99.90;;;;;;5013553;28;20025;-88
2021/12/11 12:47:45;;;;;;;15.73;12.57;;;6.00;99.90;;;;;;5012905;28;20073;-86
2021/12/11 12:50:20;;;;;;;17.10;13.52;;;6.00;99.90;;;;;;5013758;28;20014;-86
2021/12/11 12:52:47;;;;;;;16.05;12.82;;;5.90;99.90;;;;;;5013419;28;20048;-88
2021/12/11 12:55:22;;;;;;;16.85;13.60;;;6.00;99.90;;;;;;5012675;28;20025;-83
2021/12/11 12:57:52;;;;;;;18.83;14.52;;;6.10;99.90;;;;;;5013566;28;20048;-83
2021/12/11 13:00:28;;;;;;;18.98;15.38;;;6.10;99.90;;;;;;5013047;28;20026;-78
2021/12/11 13:03:00;;;;;;;21.60;16.27;;;6.20;99.90;;;;;;5012502;28;20078;-84
2021/12/11 13:05:39;;;;;;;20.90;17.13;;;6.30;99.90;;;;;;5012453;28;20026;-82
2021/12/11 13:08:09;;;;;;;23.08;17.85;;;6.30;99.90;;;;;;5012684;28;20052;-80
2021/12/11 13:10:48;;;;;;;22.77;16.27;;;6.40;99.90;;;;;;5012856;28;20381;-82
2021/12/11 13:13:15;;;;;;;18.35;15.13;;;6.40;99.90;;;;;;5012874;28;20052;-79
2021/12/11 13:15:58;;;;;;;18.92;14.88;;;6.40;99.90;;;;;;5012289;28;20030;-83